Terminal Aerodrome Forecast
Issued by NWS Bismarck, ND

Home | Current Version | Previous Version | Graphics & Text | Print | Product List | Glossary On
Versions: 1 2 3 4 5 6 7 8 9 10 11 12 13 14 15 16
239
FTUS43 KBIS 241728
TAFBIS
TAF
KBIS 241728Z 2418/2518 17017G26KT P6SM FEW110
     FM250300 15012KT P6SM VCSH OVC150
     FM250600 14005KT P6SM -SHRA OVC060
     FM250700 VRB06KT P6SM VCSH BKN060
     FM250900 11004KT P6SM BKN060
     FM251400 23011KT P6SM SCT250=

USA.gov is the U.S. government's official web portal to all federal, state and local government web resources and services.